createdAt,value
2022-11-13T00:01:30.837Z,10.13
2022-11-13T00:06:35.161Z,9.68
2022-11-13T00:11:38.310Z,9.45
2022-11-13T00:16:41.278Z,7.55
2022-11-13T00:21:45.661Z,8.05
2022-11-13T00:26:49.000Z,7.90
2022-11-13T00:31:51.960Z,6.53
2022-11-13T00:36:56.331Z,6.63
2022-11-13T00:41:59.381Z,6.22
2022-11-13T00:47:02.401Z,5.72
2022-11-13T00:52:06.864Z,5.53
2022-11-13T00:57:09.865Z,5.50
2022-11-13T01:02:15.227Z,4.63
2022-11-13T01:07:19.593Z,4.95
2022-11-13T01:12:22.566Z,3.95
2022-11-13T01:17:25.640Z,3.83
2022-11-13T01:22:29.986Z,3.80
2022-11-13T01:27:33.265Z,3.60
2022-11-13T01:32:36.416Z,3.60
2022-11-13T01:37:40.756Z,3.13
2022-11-13T01:42:43.766Z,3.75
2022-11-13T01:47:47.171Z,2.65
2022-11-13T01:52:51.558Z,2.58
2022-11-13T01:57:54.639Z,2.80
2022-11-13T02:02:57.897Z,2.97
2022-11-13T02:08:02.370Z,2.60
2022-11-13T02:13:05.705Z,2.42
2022-11-13T02:18:09.161Z,2.40
2022-11-13T02:23:21.976Z,2.40
2022-11-13T02:28:26.756Z,1.90
2022-11-13T02:33:31.694Z,1.90
2022-11-13T02:38:37.141Z,2.08
2022-11-13T02:43:41.481Z,1.92
2022-11-13T02:48:44.626Z,1.65
2022-11-13T02:53:47.664Z,1.77
2022-11-13T02:58:52.139Z,1.83
2022-11-13T03:03:57.783Z,1.65
2022-11-13T03:09:01.190Z,1.60
2022-11-13T03:14:05.580Z,1.70
2022-11-13T03:19:08.560Z,1.60
2022-11-13T03:24:11.570Z,1.42
2022-11-13T03:29:16.056Z,1.30
2022-11-13T03:34:19.154Z,1.25
2022-11-13T03:39:22.533Z,1.42
2022-11-13T03:44:26.877Z,1.40
2022-11-13T03:49:29.869Z,1.35
2022-11-13T03:54:33.027Z,1.40
2022-11-13T03:59:37.424Z,1.30
2022-11-13T04:04:40.414Z,1.50
2022-11-13T04:09:43.465Z,1.40
2022-11-13T04:14:47.838Z,1.45
2022-11-13T04:19:50.865Z,1.10
2022-11-13T04:24:53.859Z,1.15
2022-11-13T04:29:58.230Z,1.25
2022-11-13T04:35:01.228Z,1.20
2022-11-13T04:40:04.540Z,1.23
2022-11-13T04:45:09.950Z,1.20
2022-11-13T04:50:13.687Z,1.20
2022-11-13T04:55:16.713Z,1.00
2022-11-13T05:00:21.459Z,1.15
2022-11-13T05:05:24.422Z,1.15
2022-11-13T05:10:27.439Z,1.27
2022-11-13T05:15:31.803Z,1.00
2022-11-13T05:20:34.866Z,1.00
2022-11-13T05:25:37.880Z,1.20
2022-11-13T05:30:42.243Z,1.10
2022-11-13T05:35:45.235Z,1.23
2022-11-13T05:40:48.204Z,1.00
2022-11-13T05:45:52.521Z,1.15
2022-11-13T05:50:55.561Z,1.30
2022-11-13T05:56:01.870Z,1.10
2022-11-13T06:01:12.644Z,1.00
2022-11-13T06:06:17.935Z,1.30
2022-11-13T06:11:24.654Z,1.20
2022-11-13T06:16:30.338Z,1.27
2022-11-13T06:21:35.014Z,1.00
2022-11-13T06:26:38.797Z,1.15
2022-11-13T06:31:43.150Z,0.90
2022-11-13T06:36:46.153Z,1.10
2022-11-13T06:41:49.091Z,1.45
2022-11-13T06:46:53.455Z,1.15
2022-11-13T06:51:56.425Z,1.35
2022-11-13T06:56:59.432Z,1.10
2022-11-13T07:02:03.857Z,1.30
2022-11-13T07:07:06.858Z,1.20
2022-11-13T07:12:09.889Z,1.20
2022-11-13T07:17:14.259Z,1.33
2022-11-13T07:22:17.212Z,1.27
2022-11-13T07:27:20.207Z,1.25
2022-11-13T07:32:24.624Z,1.30
2022-11-13T07:37:28.531Z,1.20
2022-11-13T07:42:31.542Z,1.38
2022-11-13T07:47:35.940Z,1.23
2022-11-13T07:52:38.954Z,1.15
2022-11-13T07:57:41.893Z,1.50
2022-11-13T08:02:47.827Z,1.23
2022-11-13T08:07:51.999Z,1.45
2022-11-13T08:13:01.005Z,2.20
2022-11-13T08:18:06.259Z,3.65
2022-11-13T08:23:10.330Z,121.70
2022-11-13T08:28:13.659Z,49.95
2022-11-13T08:33:18.034Z,34.83
2022-11-13T08:38:21.086Z,29.35
2022-11-13T08:43:24.141Z,24.48
2022-11-13T08:48:28.637Z,26.60
2022-11-13T08:53:32.068Z,22.65
2022-11-13T08:58:35.058Z,19.25
2022-11-13T09:03:39.438Z,16.17
2022-11-13T09:08:42.524Z,14.20
2022-11-13T09:13:48.470Z,11.85
2022-11-13T09:18:56.423Z,10.30
2022-11-13T09:23:59.521Z,9.15
2022-11-13T09:29:02.530Z,8.82
2022-11-13T09:34:06.932Z,9.25
2022-11-13T09:39:09.917Z,8.90
2022-11-13T09:44:18.593Z,9.77
2022-11-13T09:49:27.431Z,9.30
2022-11-13T09:54:30.419Z,9.13
2022-11-13T09:59:38.645Z,7.97
2022-11-13T10:04:55.702Z,8.35
2022-11-13T10:10:28.991Z,7.57
2022-11-13T10:15:32.734Z,7.47
2022-11-13T10:20:41.021Z,7.15
2022-11-13T10:25:45.389Z,7.45
2022-11-13T10:30:48.540Z,6.28
2022-11-13T10:36:00.042Z,6.55
2022-11-13T10:41:09.665Z,6.70
2022-11-13T10:46:21.525Z,6.55
2022-11-13T10:51:28.371Z,6.20
2022-11-13T10:56:33.741Z,6.15
2022-11-13T11:01:36.890Z,6.10
2022-11-13T11:07:18.458Z,6.88
2022-11-13T11:12:19.731Z,8.02
2022-11-13T11:17:25.444Z,6.50
2022-11-13T11:22:33.023Z,5.78
2022-11-13T11:27:39.202Z,6.10
2022-11-13T11:32:46.351Z,6.18
2022-11-13T11:37:58.498Z,5.65
2022-11-13T11:43:08.981Z,5.68
2022-11-13T11:48:15.123Z,5.43
2022-11-13T11:53:27.797Z,4.90
2022-11-13T11:59:05.034Z,8.07
2022-11-13T12:04:22.306Z,6.38
2022-11-13T12:09:30.736Z,5.32
2022-11-13T12:14:45.103Z,5.60
2022-11-13T12:19:55.295Z,5.78
2022-11-13T12:25:13.567Z,6.70
2022-11-13T12:30:20.459Z,6.55
2022-11-13T12:35:26.162Z,7.95
2022-11-13T12:40:41.210Z,14.90
2022-11-13T12:45:52.154Z,14.35
2022-11-13T12:51:00.627Z,15.18
2022-11-13T12:56:05.446Z,15.02
2022-11-13T13:01:18.506Z,15.10
2022-11-13T13:06:39.063Z,14.68
2022-11-13T13:11:50.893Z,13.63
2022-11-13T13:16:53.887Z,13.23
2022-11-13T13:21:57.178Z,12.85
2022-11-13T13:27:02.365Z,11.82
2022-11-13T13:32:19.411Z,11.15
2022-11-13T13:37:36.934Z,11.35
2022-11-13T13:42:59.492Z,11.02
2022-11-13T13:48:03.583Z,10.30
2022-11-13T13:53:07.877Z,10.55
2022-11-13T13:58:16.594Z,11.48
2022-11-13T14:03:21.786Z,9.75
2022-11-13T14:08:26.326Z,9.98
2022-11-13T14:13:31.144Z,6.88
2022-11-13T14:18:35.408Z,8.50
2022-11-13T14:23:43.446Z,8.32
2022-11-13T14:28:54.414Z,7.20
2022-11-13T14:34:00.869Z,7.47
2022-11-13T14:39:04.559Z,8.23
2022-11-13T14:44:12.680Z,7.45
2022-11-13T14:49:26.844Z,7.15
2022-11-13T14:54:53.321Z,6.20
2022-11-13T14:59:57.538Z,6.20
2022-11-13T15:05:00.540Z,5.40
2022-11-13T15:10:03.660Z,6.22
2022-11-13T15:15:14.570Z,5.38
2022-11-13T15:20:19.614Z,5.55
2022-11-13T15:25:24.658Z,5.07
2022-11-13T15:30:29.003Z,5.30
2022-11-13T15:35:32.726Z,7.28
2022-11-13T15:40:35.718Z,8.00
2022-11-13T15:45:44.262Z,7.53
2022-11-13T15:50:47.795Z,7.18
2022-11-13T15:55:50.844Z,6.93
2022-11-13T16:00:55.278Z,7.70
2022-11-13T16:05:58.997Z,7.50
2022-11-13T16:11:02.027Z,8.93
2022-11-13T16:16:06.987Z,9.05
2022-11-13T16:21:13.156Z,9.07
2022-11-13T16:26:18.568Z,9.07
2022-11-13T16:31:23.678Z,8.88
2022-11-13T16:36:27.664Z,9.88
2022-11-13T16:41:32.267Z,8.63
2022-11-13T16:46:41.624Z,8.43
2022-11-13T16:51:44.694Z,8.70
2022-11-13T16:56:47.738Z,8.20
2022-11-13T17:01:56.581Z,8.15
2022-11-13T17:06:59.638Z,8.73
2022-11-13T17:12:02.658Z,25.63
2022-11-13T17:17:11.689Z,15.25
2022-11-13T17:22:16.903Z,12.38
2022-11-13T17:27:19.957Z,9.82
2022-11-13T17:32:24.410Z,15.70
2022-11-13T17:37:27.441Z,12.68
2022-11-13T17:42:30.503Z,10.77
2022-11-13T17:47:36.195Z,11.60
2022-11-13T17:52:39.206Z,10.75
2022-11-13T17:57:42.236Z,9.32
2022-11-13T18:02:46.854Z,10.00
2022-11-13T18:07:49.842Z,11.23
2022-11-13T18:12:53.061Z,10.60
2022-11-13T18:17:57.686Z,9.73
2022-11-13T18:23:00.973Z,9.73
2022-11-13T18:28:04.132Z,9.90
2022-11-13T18:33:08.445Z,9.18
2022-11-13T18:38:11.419Z,8.65
2022-11-13T18:43:16.199Z,8.40
2022-11-13T18:48:20.513Z,8.77
2022-11-13T18:53:23.529Z,7.28
2022-11-13T18:58:26.570Z,7.82
2022-11-13T19:03:31.084Z,7.25
2022-11-13T19:08:38.282Z,6.93
2022-11-13T19:13:45.105Z,7.40
2022-11-13T19:18:54.358Z,8.40
2022-11-13T19:23:58.399Z,7.30
2022-11-13T19:29:01.452Z,7.45
2022-11-13T19:34:08.395Z,7.40
2022-11-13T19:39:11.406Z,6.60
2022-11-13T19:44:14.646Z,6.43
2022-11-13T19:49:19.118Z,6.93
2022-11-13T19:54:22.105Z,6.50
2022-11-13T19:59:25.091Z,6.88
2022-11-13T20:04:29.567Z,6.97
2022-11-13T20:09:32.539Z,6.90
2022-11-13T20:14:38.396Z,7.03
2022-11-13T20:19:43.507Z,7.35
2022-11-13T20:24:46.478Z,8.98
2022-11-13T20:29:49.671Z,7.80
2022-11-13T20:34:54.027Z,8.23
2022-11-13T20:39:57.169Z,8.40
2022-11-13T20:45:01.457Z,8.80
2022-11-13T20:50:06.581Z,8.90
2022-11-13T20:55:10.269Z,9.93
2022-11-13T21:00:13.864Z,10.40
2022-11-13T21:05:18.215Z,9.88
2022-11-13T21:10:21.197Z,10.90
2022-11-13T21:15:25.275Z,10.65
2022-11-13T21:20:29.594Z,11.40
2022-11-13T21:25:32.650Z,10.85
2022-11-13T21:30:35.716Z,19.13
2022-11-13T21:35:40.110Z,15.55
2022-11-13T21:40:43.058Z,15.57
2022-11-13T21:45:46.049Z,16.70
2022-11-13T21:50:50.457Z,16.15
2022-11-13T21:55:53.460Z,16.33
2022-11-13T22:00:56.402Z,15.55
2022-11-13T22:06:21.844Z,16.50
2022-11-13T22:11:26.163Z,45.28
2022-11-13T22:16:31.765Z,44.22
2022-11-13T22:21:37.265Z,33.30
2022-11-13T22:26:42.280Z,27.30
2022-11-13T22:31:45.370Z,24.02
2022-11-13T22:36:49.722Z,23.48
2022-11-13T22:41:52.766Z,22.85
2022-11-13T22:46:55.710Z,21.67
2022-11-13T22:52:00.034Z,20.77
2022-11-13T22:57:04.208Z,20.60
2022-11-13T23:02:07.205Z,20.63
2022-11-13T23:07:11.640Z,19.20
2022-11-13T23:12:14.673Z,18.50
2022-11-13T23:17:17.630Z,17.95
2022-11-13T23:22:21.962Z,16.30
2022-11-13T23:27:25.000Z,18.40
2022-11-13T23:32:27.954Z,16.63
2022-11-13T23:37:32.269Z,15.15
2022-11-13T23:42:54.385Z,15.10
2022-11-13T23:47:58.351Z,14.73
2022-11-13T23:53:02.769Z,14.05
2022-11-13T23:58:07.527Z,12.70
